createdAt,value
2023-02-04T00:00:39.951Z,2.47
2023-02-04T00:03:07.859Z,2.33
2023-02-04T00:05:36.933Z,2.43
2023-02-04T00:08:07.797Z,2.55
2023-02-04T00:10:36.088Z,2.44
2023-02-04T00:13:04.309Z,2.50
2023-02-04T00:15:36.641Z,2.45
2023-02-04T00:18:05.827Z,2.51
2023-02-04T00:20:33.858Z,2.46
2023-02-04T00:23:01.645Z,2.50
2023-02-04T00:25:29.754Z,2.51
2023-02-04T00:27:57.613Z,2.46
2023-02-04T00:30:26.840Z,2.54
2023-02-04T00:32:56.677Z,2.66
2023-02-04T00:35:24.550Z,2.70
2023-02-04T00:37:53.742Z,2.78
2023-02-04T00:40:21.473Z,2.88
2023-02-04T00:42:49.125Z,2.92
2023-02-04T00:45:17.662Z,2.88
2023-02-04T00:47:45.222Z,2.84
2023-02-04T00:50:12.866Z,2.85
2023-02-04T00:52:40.690Z,2.91
2023-02-04T00:55:10.529Z,2.76
2023-02-04T00:57:39.222Z,2.82
2023-02-04T01:00:07.157Z,2.88
2023-02-04T01:02:34.985Z,2.83
2023-02-04T01:05:02.623Z,2.77
2023-02-04T01:07:33.397Z,2.75
2023-02-04T01:10:01.405Z,2.89
2023-02-04T01:12:29.376Z,2.77
2023-02-04T01:14:57.183Z,3.02
2023-02-04T01:17:26.000Z,2.86
2023-02-04T01:19:54.508Z,2.87
2023-02-04T01:22:22.168Z,2.71
2023-02-04T01:24:50.838Z,2.83
2023-02-04T01:27:36.682Z,2.72
2023-02-04T01:30:06.011Z,2.82
2023-02-04T01:32:35.138Z,2.87
2023-02-04T01:35:02.933Z,2.85
2023-02-04T01:37:30.754Z,3.06
2023-02-04T01:39:58.381Z,2.99
2023-02-04T01:42:25.996Z,2.87
2023-02-04T01:44:53.621Z,2.99
2023-02-04T01:47:22.316Z,3.06
2023-02-04T01:49:51.426Z,3.02
2023-02-04T01:52:18.980Z,2.76
2023-02-04T01:54:46.894Z,2.92
2023-02-04T01:57:15.673Z,2.99
2023-02-04T01:59:44.832Z,2.94
2023-02-04T02:02:37.337Z,2.87
2023-02-04T02:05:05.403Z,2.79
2023-02-04T02:07:33.063Z,2.52
2023-02-04T02:10:00.800Z,2.67
2023-02-04T02:12:29.241Z,2.76
2023-02-04T02:14:56.928Z,2.78
2023-02-04T02:17:24.715Z,2.62
2023-02-04T02:19:53.198Z,2.66
2023-02-04T02:22:36.998Z,2.70
2023-02-04T02:25:12.058Z,2.45
2023-02-04T02:27:40.594Z,2.38
2023-02-04T02:30:09.728Z,2.42
2023-02-04T02:32:38.067Z,2.48
2023-02-04T02:35:06.286Z,2.36
2023-02-04T02:37:34.271Z,2.37
2023-02-04T02:40:01.879Z,2.36
2023-02-04T02:42:29.605Z,2.31
2023-02-04T02:44:57.301Z,2.47
2023-02-04T02:47:24.869Z,2.53
2023-02-04T02:49:53.237Z,2.44
2023-02-04T02:52:20.978Z,2.41
2023-02-04T02:54:48.646Z,2.37
2023-02-04T02:57:21.920Z,2.42
2023-02-04T02:59:49.654Z,2.46
2023-02-04T03:02:19.232Z,2.48
2023-02-04T03:04:50.762Z,2.38
2023-02-04T03:07:18.802Z,2.34
2023-02-04T03:09:46.575Z,2.40
2023-02-04T03:12:14.205Z,2.47
2023-02-04T03:14:41.868Z,2.53
2023-02-04T03:17:10.080Z,2.28
2023-02-04T03:19:38.356Z,2.42
2023-02-04T03:22:06.189Z,2.41
2023-02-04T03:24:34.307Z,2.41
2023-02-04T03:27:02.188Z,2.29
2023-02-04T03:29:30.252Z,2.42
2023-02-04T03:32:00.214Z,2.43
2023-02-04T03:34:27.996Z,2.41
2023-02-04T03:36:56.367Z,2.32
2023-02-04T03:39:24.395Z,2.30
2023-02-04T03:41:51.990Z,2.41
2023-02-04T03:44:19.757Z,2.41
2023-02-04T03:46:47.846Z,2.19
2023-02-04T03:49:15.378Z,1.94
2023-02-04T03:51:43.539Z,1.86
2023-02-04T03:54:11.088Z,2.10
2023-02-04T03:56:39.807Z,2.14
2023-02-04T03:59:07.402Z,2.11
2023-02-04T04:01:36.429Z,1.59
2023-02-04T04:04:04.241Z,1.42
2023-02-04T04:06:32.208Z,1.55
2023-02-04T04:09:00.046Z,1.61
2023-02-04T04:11:27.882Z,1.55
2023-02-04T04:13:56.239Z,1.38
2023-02-04T04:16:24.406Z,1.47
2023-02-04T04:18:56.208Z,1.48
2023-02-04T04:21:24.058Z,1.33
2023-02-04T04:23:51.859Z,1.26
2023-02-04T04:26:19.526Z,1.16
2023-02-04T04:28:47.132Z,1.17
2023-02-04T04:31:15.139Z,1.07
2023-02-04T04:33:42.872Z,1.18
2023-02-04T04:36:10.533Z,0.99
2023-02-04T04:38:38.251Z,0.96
2023-02-04T04:41:06.779Z,0.85
2023-02-04T04:43:34.338Z,0.82
2023-02-04T04:46:02.082Z,0.96
2023-02-04T04:48:29.728Z,1.00
2023-02-04T04:50:58.488Z,1.09
2023-02-04T04:53:26.375Z,1.14
2023-02-04T04:55:54.064Z,0.88
2023-02-04T04:58:22.003Z,0.83
2023-02-04T05:00:49.646Z,0.92
2023-02-04T05:03:17.414Z,0.78
2023-02-04T05:05:45.176Z,0.79
2023-02-04T05:08:17.156Z,0.91
2023-02-04T05:10:44.791Z,0.74
2023-02-04T05:13:12.367Z,0.83
2023-02-04T05:15:40.112Z,0.82
2023-02-04T05:18:07.811Z,0.93
2023-02-04T05:20:35.546Z,0.95
2023-02-04T05:23:05.533Z,0.88
2023-02-04T05:25:33.387Z,0.85
2023-02-04T05:28:01.094Z,0.73
2023-02-04T05:30:29.160Z,0.74
2023-02-04T05:32:56.769Z,0.75
2023-02-04T05:35:24.356Z,0.71
2023-02-04T05:37:52.059Z,0.86
2023-02-04T05:40:19.797Z,0.89
2023-02-04T05:42:48.189Z,1.05
2023-02-04T05:45:16.907Z,0.95
2023-02-04T05:47:44.501Z,0.83
2023-02-04T05:50:12.121Z,0.84
2023-02-04T05:52:40.616Z,0.92
2023-02-04T05:55:08.973Z,1.11
2023-02-04T05:57:36.699Z,0.93
2023-02-04T06:00:04.714Z,1.23
2023-02-04T06:02:40.013Z,1.26
2023-02-04T06:05:07.831Z,1.26
2023-02-04T06:07:35.871Z,1.15
2023-02-04T06:10:04.468Z,1.25
2023-02-04T06:12:32.849Z,1.45
2023-02-04T06:15:00.425Z,1.45
2023-02-04T06:17:29.134Z,1.45
2023-02-04T06:19:57.035Z,1.52
2023-02-04T06:22:26.066Z,1.40
2023-02-04T06:24:55.787Z,1.68
2023-02-04T06:27:23.656Z,1.54
2023-02-04T06:29:54.394Z,1.64
2023-02-04T06:32:22.429Z,1.65
2023-02-04T06:34:50.311Z,1.52
2023-02-04T06:37:18.067Z,1.73
2023-02-04T06:39:45.914Z,1.76
2023-02-04T06:42:13.482Z,1.58
2023-02-04T06:44:41.084Z,1.72
2023-02-04T06:47:08.883Z,1.78
2023-02-04T06:49:36.580Z,1.77
2023-02-04T06:52:04.298Z,1.97
2023-02-04T06:54:32.153Z,1.73
2023-02-04T06:57:06.717Z,1.55
2023-02-04T06:59:38.094Z,1.64
2023-02-04T07:02:05.956Z,1.88
2023-02-04T07:04:34.259Z,1.85
2023-02-04T07:07:01.957Z,1.83
2023-02-04T07:09:29.724Z,1.78
2023-02-04T07:11:57.387Z,1.62
2023-02-04T07:14:28.835Z,1.83
2023-02-04T07:16:58.717Z,1.84
2023-02-04T07:19:26.326Z,1.86
2023-02-04T07:21:57.121Z,1.76
2023-02-04T07:24:25.296Z,1.76
2023-02-04T07:26:53.656Z,1.92
2023-02-04T07:29:25.587Z,1.72
2023-02-04T07:31:54.139Z,1.78
2023-02-04T07:34:21.801Z,1.78
2023-02-04T07:36:50.027Z,1.86
2023-02-04T07:39:17.827Z,1.84
2023-02-04T07:41:45.596Z,1.98
2023-02-04T07:44:15.117Z,1.67
2023-02-04T07:46:43.025Z,1.89
2023-02-04T07:49:10.687Z,1.83
2023-02-04T07:51:38.647Z,1.83
2023-02-04T07:54:06.275Z,2.01
2023-02-04T07:56:33.927Z,1.66
2023-02-04T07:59:01.611Z,1.97
2023-02-04T08:01:29.446Z,1.58
2023-02-04T08:03:57.151Z,2.07
2023-02-04T08:06:24.744Z,1.88
2023-02-04T08:08:52.367Z,2.13
2023-02-04T08:11:22.779Z,1.90
2023-02-04T08:13:50.588Z,1.90
2023-02-04T08:16:18.246Z,2.17
2023-02-04T08:18:45.917Z,2.08
2023-02-04T08:21:13.544Z,2.28
2023-02-04T08:23:41.989Z,2.25
2023-02-04T08:26:11.502Z,2.26
2023-02-04T08:28:39.339Z,2.29
2023-02-04T08:31:07.407Z,2.37
2023-02-04T08:33:36.403Z,2.49
2023-02-04T08:36:05.980Z,2.23
2023-02-04T08:38:33.694Z,2.14
2023-02-04T08:41:01.705Z,2.17
2023-02-04T08:43:29.466Z,1.91
2023-02-04T08:45:57.116Z,1.90
2023-02-04T08:48:24.652Z,2.05
2023-02-04T08:50:52.416Z,2.12
2023-02-04T08:53:20.030Z,2.58
2023-02-04T08:55:47.620Z,2.23
2023-02-04T08:58:15.160Z,2.31
2023-02-04T09:00:42.922Z,2.50
2023-02-04T09:03:10.484Z,2.36
2023-02-04T09:05:38.076Z,1.86
2023-02-04T09:08:05.821Z,2.04
2023-02-04T09:10:33.988Z,1.96
2023-02-04T09:13:01.820Z,2.12
2023-02-04T09:15:29.645Z,2.20
2023-02-04T09:18:04.868Z,2.60
2023-02-04T09:20:33.069Z,2.20
2023-02-04T09:23:00.929Z,2.53
2023-02-04T09:25:28.560Z,2.17
2023-02-04T09:27:56.405Z,2.14
2023-02-04T09:30:24.289Z,2.01
2023-02-04T09:32:52.361Z,1.78
2023-02-04T09:35:20.372Z,1.88
2023-02-04T09:37:48.035Z,2.01
2023-02-04T09:40:17.536Z,2.10
2023-02-04T09:42:47.070Z,2.09
2023-02-04T09:45:19.485Z,2.04
2023-02-04T09:47:47.100Z,2.50
2023-02-04T09:50:19.714Z,2.16
2023-02-04T09:52:48.039Z,2.03
2023-02-04T09:55:16.897Z,2.07
2023-02-04T09:57:44.560Z,2.16
2023-02-04T10:00:17.321Z,1.83
2023-02-04T10:02:44.964Z,1.83
2023-02-04T10:05:17.067Z,2.20
2023-02-04T10:07:46.738Z,2.24
2023-02-04T10:10:19.111Z,2.13
2023-02-04T10:12:47.445Z,1.77
2023-02-04T10:15:15.815Z,2.02
2023-02-04T10:17:43.485Z,1.90
2023-02-04T10:20:18.179Z,1.95
2023-02-04T10:22:46.748Z,1.80
2023-02-04T10:25:15.459Z,1.69
2023-02-04T10:27:56.136Z,2.09
2023-02-04T10:30:28.629Z,2.11
2023-02-04T10:32:56.441Z,2.06
2023-02-04T10:35:24.032Z,2.33
2023-02-04T10:38:07.763Z,2.08
2023-02-04T10:40:36.495Z,2.31
2023-02-04T10:43:18.056Z,2.77
2023-02-04T10:46:00.489Z,2.86
2023-02-04T10:48:30.263Z,2.51
2023-02-04T10:50:58.838Z,2.77
2023-02-04T10:53:46.295Z,2.66
2023-02-04T10:56:20.084Z,2.26
2023-02-04T10:58:48.132Z,2.35
2023-02-04T11:01:16.428Z,2.53
2023-02-04T11:03:46.412Z,2.58
2023-02-04T11:06:20.997Z,2.58
2023-02-04T11:08:50.340Z,2.53
2023-02-04T11:11:18.917Z,2.78
2023-02-04T11:13:49.495Z,2.88
2023-02-04T11:16:23.435Z,2.84
2023-02-04T11:18:54.679Z,2.59
2023-02-04T11:21:34.696Z,2.53
2023-02-04T11:24:11.329Z,2.41
2023-02-04T11:26:55.229Z,2.59
2023-02-04T11:29:34.947Z,2.74
2023-02-04T11:32:07.695Z,2.96
2023-02-04T11:34:49.595Z,3.14
2023-02-04T11:37:18.541Z,3.26
2023-02-04T11:39:49.738Z,3.43
2023-02-04T11:42:25.147Z,3.27
2023-02-04T11:45:00.478Z,3.20
2023-02-04T11:47:28.622Z,2.92
2023-02-04T11:50:00.102Z,2.72
2023-02-04T11:52:28.049Z,2.89
2023-02-04T11:54:59.866Z,3.06
2023-02-04T11:57:27.756Z,3.04
2023-02-04T11:59:55.536Z,2.86
2023-02-04T12:02:26.214Z,2.88
2023-02-04T12:05:12.909Z,3.08
2023-02-04T12:07:40.638Z,3.15
2023-02-04T12:10:18.401Z,3.40
2023-02-04T12:12:51.711Z,3.18
2023-02-04T12:15:33.618Z,2.93
2023-02-04T12:18:07.431Z,2.64
2023-02-04T12:20:37.660Z,2.44
2023-02-04T12:23:05.894Z,2.61
2023-02-04T12:25:33.949Z,2.53
2023-02-04T12:28:01.799Z,2.44
2023-02-04T12:30:29.667Z,2.53
2023-02-04T12:32:57.543Z,2.43
2023-02-04T12:35:25.207Z,2.67
2023-02-04T12:37:52.981Z,2.58
2023-02-04T12:40:21.923Z,2.29
2023-02-04T12:42:49.725Z,2.32
2023-02-04T12:45:17.955Z,2.31
2023-02-04T12:47:46.214Z,2.38
2023-02-04T12:50:22.802Z,2.19
2023-02-04T12:52:51.850Z,2.35
2023-02-04T12:58:12.451Z,2.23
2023-02-04T13:00:40.317Z,2.18
2023-02-04T13:03:08.309Z,2.14
2023-02-04T13:05:36.422Z,2.41
2023-02-04T13:08:04.543Z,2.38
2023-02-04T13:10:33.384Z,2.38
2023-02-04T13:13:04.571Z,2.41
2023-02-04T13:15:32.665Z,2.25
2023-02-04T13:18:00.585Z,2.43
2023-02-04T13:20:28.242Z,2.41
2023-02-04T13:22:55.857Z,2.54
2023-02-04T13:25:24.166Z,2.51
2023-02-04T13:27:51.828Z,2.24
2023-02-04T13:30:19.945Z,2.25
2023-02-04T13:32:48.234Z,2.43
2023-02-04T13:35:16.312Z,2.19
2023-02-04T13:37:44.511Z,2.21
2023-02-04T13:40:12.450Z,2.27
2023-02-04T13:42:40.615Z,2.39
2023-02-04T13:45:12.460Z,2.37
2023-02-04T13:47:40.455Z,2.56
2023-02-04T13:50:08.463Z,2.23
2023-02-04T13:52:36.204Z,2.32
2023-02-04T13:55:04.447Z,2.17
2023-02-04T13:57:33.345Z,2.22
2023-02-04T14:00:01.221Z,2.27
2023-02-04T14:02:29.248Z,2.28
2023-02-04T14:04:57.901Z,2.07
2023-02-04T14:07:25.555Z,2.14
2023-02-04T14:09:53.800Z,2.16
2023-02-04T14:12:21.544Z,2.15
2023-02-04T14:14:49.212Z,2.16
2023-02-04T14:17:17.068Z,2.41
2023-02-04T14:19:44.716Z,2.27
2023-02-04T14:22:13.379Z,2.08
2023-02-04T14:24:42.808Z,2.30
2023-02-04T14:27:10.774Z,2.31
2023-02-04T14:29:38.444Z,2.27
2023-02-04T14:32:06.283Z,2.31
2023-02-04T14:34:33.932Z,2.34
2023-02-04T14:37:01.676Z,2.51
2023-02-04T14:39:29.592Z,2.48
2023-02-04T14:41:57.322Z,2.54
2023-02-04T14:44:24.926Z,2.22
2023-02-04T14:46:52.642Z,2.43
2023-02-04T14:49:20.290Z,2.29
2023-02-04T14:51:48.165Z,2.44
2023-02-04T14:54:16.567Z,2.28
2023-02-04T14:56:46.606Z,2.30
2023-02-04T14:59:14.198Z,2.41
2023-02-04T15:01:42.489Z,2.52
2023-02-04T15:04:12.008Z,2.58
2023-02-04T15:06:40.166Z,2.53
2023-02-04T15:09:07.899Z,2.32
2023-02-04T15:11:35.917Z,2.34
2023-02-04T15:14:03.870Z,2.44
2023-02-04T15:16:32.026Z,2.38
2023-02-04T15:18:59.570Z,2.36
2023-02-04T15:24:12.637Z,2.40
2023-02-04T15:26:40.614Z,2.49
2023-02-04T15:31:53.648Z,2.43
2023-02-04T15:34:21.362Z,2.26
2023-02-04T15:36:49.029Z,2.42
2023-02-04T15:39:16.672Z,2.34
2023-02-04T15:41:44.353Z,2.47
2023-02-04T15:44:12.751Z,2.35
2023-02-04T15:46:40.430Z,2.59
2023-02-04T15:49:09.295Z,2.37
2023-02-04T15:51:37.752Z,2.43
2023-02-04T15:54:05.500Z,2.34
2023-02-04T15:56:33.880Z,2.45
2023-02-04T15:59:02.473Z,2.43
2023-02-04T16:01:30.612Z,2.42
2023-02-04T16:03:59.136Z,2.47
2023-02-04T16:06:26.743Z,2.19
2023-02-04T16:08:54.845Z,2.21
2023-02-04T16:11:22.662Z,2.27
2023-02-04T16:13:51.806Z,2.59
2023-02-04T16:16:20.515Z,2.54
2023-02-04T16:18:48.249Z,2.31
2023-02-04T16:21:16.028Z,2.27
2023-02-04T16:23:43.960Z,2.12
2023-02-04T16:26:12.162Z,2.24
2023-02-04T16:28:40.428Z,1.97
2023-02-04T16:31:10.215Z,2.05
2023-02-04T16:33:37.957Z,1.80
2023-02-04T16:36:08.506Z,1.96
2023-02-04T16:38:36.894Z,2.25
2023-02-04T16:41:05.958Z,2.12
2023-02-04T16:43:33.727Z,2.18
2023-02-04T16:46:01.544Z,2.12
2023-02-04T16:48:29.064Z,1.99
2023-02-04T16:50:59.768Z,1.80
2023-02-04T16:53:27.447Z,1.92
2023-02-04T16:55:55.925Z,1.92
2023-02-04T16:58:23.596Z,2.03
2023-02-04T17:00:51.345Z,1.72
2023-02-04T17:03:18.971Z,1.69
2023-02-04T17:05:46.642Z,1.95
2023-02-04T17:08:15.301Z,1.68
2023-02-04T17:11:01.418Z,1.85
2023-02-04T17:13:29.130Z,1.79
2023-02-04T17:16:01.418Z,1.90
2023-02-04T17:18:32.462Z,1.99
2023-02-04T17:21:00.161Z,2.07
2023-02-04T17:23:28.826Z,2.13
2023-02-04T17:25:56.529Z,1.90
2023-02-04T17:28:24.366Z,2.10
2023-02-04T17:30:52.057Z,2.21
2023-02-04T17:33:19.671Z,2.30
2023-02-04T17:35:47.297Z,2.04
2023-02-04T17:38:14.945Z,1.87
2023-02-04T17:40:43.208Z,2.07
2023-02-04T17:43:10.943Z,1.92
2023-02-04T17:45:38.594Z,1.83
2023-02-04T17:48:06.352Z,2.01
2023-02-04T17:53:10.829Z,2.04
2023-02-04T17:55:39.705Z,1.77
2023-02-04T17:58:15.722Z,1.70
2023-02-04T18:00:45.291Z,1.64
2023-02-04T18:03:19.898Z,1.61
2023-02-04T18:05:49.554Z,1.57
2023-02-04T18:08:31.885Z,1.49
2023-02-04T18:11:00.043Z,1.65
2023-02-04T18:13:32.672Z,1.61
2023-02-04T18:16:02.986Z,1.57
2023-02-04T18:18:38.437Z,1.68
2023-02-04T18:21:19.785Z,1.72
2023-02-04T18:23:54.097Z,1.46
2023-02-04T18:26:25.858Z,1.48
2023-02-04T18:28:53.482Z,1.48
2023-02-04T18:31:48.862Z,1.41
2023-02-04T18:34:21.276Z,1.25
2023-02-04T18:36:48.937Z,1.25
2023-02-04T18:39:21.556Z,1.14
2023-02-04T18:41:50.421Z,1.39
2023-02-04T18:44:32.708Z,1.46
2023-02-04T18:47:01.706Z,1.35
2023-02-04T18:49:30.760Z,1.38
2023-02-04T18:51:59.828Z,1.37
2023-02-04T18:54:37.158Z,1.31
2023-02-04T18:57:13.912Z,1.35
2023-02-04T18:59:41.913Z,1.31
2023-02-04T19:02:58.073Z,1.41
2023-02-04T19:05:32.384Z,1.23
2023-02-04T19:08:06.130Z,1.12
2023-02-04T19:10:37.225Z,0.93
2023-02-04T19:13:18.994Z,1.16
2023-02-04T19:15:52.387Z,1.24
2023-02-04T19:18:33.836Z,1.27
2023-02-04T19:21:21.291Z,1.05
2023-02-04T19:23:50.363Z,0.98
2023-02-04T19:26:33.407Z,1.18
2023-02-04T19:29:01.592Z,0.88
2023-02-04T19:31:34.879Z,0.91
2023-02-04T19:34:23.989Z,0.85
2023-02-04T19:36:51.678Z,0.82
2023-02-04T19:39:38.584Z,1.01
2023-02-04T19:42:24.792Z,0.74
2023-02-04T19:44:52.601Z,0.72
2023-02-04T19:47:29.772Z,0.74
2023-02-04T19:50:12.702Z,0.85
2023-02-04T19:52:52.525Z,0.88
2023-02-04T19:55:24.951Z,0.93
2023-02-04T19:58:05.275Z,0.73
2023-02-04T20:00:34.122Z,0.84
2023-02-04T20:03:02.685Z,0.79
2023-02-04T20:05:32.525Z,0.64
2023-02-04T20:08:27.993Z,0.79
2023-02-04T20:10:56.194Z,0.91
2023-02-04T20:13:24.282Z,0.70
2023-02-04T20:15:53.212Z,0.75
2023-02-04T20:18:23.085Z,0.78
2023-02-04T20:20:50.726Z,0.74
2023-02-04T20:23:27.770Z,0.78
2023-02-04T20:25:55.651Z,0.85
2023-02-04T20:28:23.206Z,0.64
2023-02-04T20:30:51.442Z,0.65
2023-02-04T20:33:49.195Z,0.70
2023-02-04T20:36:26.911Z,0.82
2023-02-04T20:39:09.265Z,0.89
2023-02-04T20:41:37.550Z,0.88
2023-02-04T20:44:15.540Z,0.71
2023-02-04T20:46:43.325Z,0.93
2023-02-04T20:49:25.286Z,0.96
2023-02-04T20:51:56.692Z,0.89
2023-02-04T20:54:24.084Z,0.74
2023-02-04T20:56:51.638Z,0.77
2023-02-04T20:59:25.796Z,0.68
2023-02-04T21:01:53.784Z,0.57
2023-02-04T21:04:32.527Z,0.61
2023-02-04T21:07:02.655Z,0.85
2023-02-04T21:09:32.786Z,0.59
2023-02-04T21:12:01.472Z,0.84
2023-02-04T21:14:29.473Z,0.70
2023-02-04T21:16:57.349Z,0.90
2023-02-04T21:19:25.594Z,0.89
2023-02-04T21:21:56.001Z,0.82
2023-02-04T21:24:24.347Z,0.82
2023-02-04T21:26:52.210Z,0.76
2023-02-04T21:29:19.959Z,0.87
2023-02-04T21:31:47.772Z,0.80
2023-02-04T21:34:16.713Z,0.84
2023-02-04T21:36:44.292Z,0.96
2023-02-04T21:39:12.276Z,0.89
2023-02-04T21:41:39.925Z,0.77
2023-02-04T21:44:07.531Z,0.88
2023-02-04T21:46:35.560Z,0.93
2023-02-04T21:49:05.085Z,0.88
2023-02-04T21:51:34.058Z,0.79
2023-02-04T21:54:04.568Z,0.89
2023-02-04T21:56:32.320Z,0.86
2023-02-04T21:59:00.063Z,0.62
2023-02-04T22:01:27.601Z,0.60
2023-02-04T22:03:55.502Z,0.59
2023-02-04T22:06:23.032Z,0.69
2023-02-04T22:08:50.694Z,0.43
2023-02-04T22:11:19.554Z,0.65
2023-02-04T22:14:05.862Z,0.66
2023-02-04T22:16:33.446Z,0.64
2023-02-04T22:19:01.209Z,0.50
2023-02-04T22:21:28.827Z,0.65
2023-02-04T22:23:56.353Z,0.71
2023-02-04T22:26:24.050Z,0.51
2023-02-04T22:28:51.648Z,0.45
2023-02-04T22:31:19.597Z,0.65
2023-02-04T22:33:47.236Z,0.80
2023-02-04T22:36:14.828Z,0.78
2023-02-04T22:38:42.587Z,0.81
2023-02-04T22:41:10.372Z,0.85
2023-02-04T22:43:38.306Z,0.86
2023-02-04T22:46:05.957Z,0.81
2023-02-04T22:48:33.542Z,0.90
2023-02-04T22:51:03.717Z,1.00
2023-02-04T22:53:31.982Z,1.06
2023-02-04T22:56:00.263Z,0.97
2023-02-04T22:58:28.123Z,1.02
2023-02-04T23:00:55.844Z,1.11
2023-02-04T23:03:23.406Z,1.09
2023-02-04T23:05:50.941Z,1.05
2023-02-04T23:08:18.958Z,0.99
2023-02-04T23:10:46.606Z,0.95
2023-02-04T23:13:28.561Z,0.99
2023-02-04T23:15:56.296Z,1.05
2023-02-04T23:18:24.322Z,1.21
2023-02-04T23:20:52.442Z,1.24
2023-02-04T23:23:20.120Z,0.97
2023-02-04T23:25:49.419Z,1.09
2023-02-04T23:28:17.076Z,1.20
2023-02-04T23:30:45.207Z,1.14
2023-02-04T23:33:12.993Z,1.13
2023-02-04T23:35:40.567Z,1.11
2023-02-04T23:38:08.587Z,0.86
2023-02-04T23:40:36.190Z,0.98
2023-02-04T23:43:04.094Z,1.17
2023-02-04T23:45:32.073Z,1.21
2023-02-04T23:47:59.844Z,1.27
2023-02-04T23:50:27.471Z,1.23
2023-02-04T23:52:55.050Z,1.22
2023-02-04T23:55:22.637Z,1.28
2023-02-04T23:57:50.862Z,1.21
